Arnold, MO

2:27 AM CDT on September 03, 2014 (GMT -0500)
KMOARNOL1 | Change Station
CLOSE
Current Station
Personal Weather Station
Location: Arnold, MO
Elevation: 507 ft
Nearby Weather Stations

Elev 507 ft 38.45 °N, 90.41 °W | Updated 4 minutes ago

Fog
Fog
65.4 °F
Feels Like 65.4 °F
N
0.0
Wind Variable Wind from WNW
Gusts 0.0 mph

Today
High -- | Low -- °F
--% Chance of Precip.
Yesterday
High -- | Low -- °F
Precip. -- in
6:32 AM 7:28 PM
First Quarter, 59% visible
Pressure 30.00 in
Visibility 0.5 miles
Clouds
Dew Point 64 °F
Humidity 96%
Rainfall 0.00 in
Snow Depth Not available.
UV 0.0 out of 12
Pollen 6.50 out of 12
Air Quality Not available.
Flu Activity Not available.
SPECI KCPS 030714Z AUTO 00000KT 1/2SM FG VV002 18/18 A3000 RMK AO2 T01830178 TSNO

More Conditions Fewer Conditions

Pressure 30.00 in
Visibility 0.5 miles
Clouds
Dew Point 64 °F
Humidity 96%
Rainfall 0.00 in
Snow Depth Not available.
UV 0.0 out of 12
Pollen 6.50 out of 12
Air Quality Not available.
Flu Activity Not available.
SPECI KCPS 030714Z AUTO 00000KT 1/2SM FG VV002 18/18 A3000 RMK AO2 T01830178 TSNO

More Conditions Fewer Conditions

10-Day Weather Forecast

Almanac

Astronomy

Sep. 03, 2014 Rise Set
Actual Time 6:32 AM CDT 7:28 PM CDT
Civil Twilight 6:05 AM CDT 7:55 PM CDT
Nautical Twilight 5:33 AM CDT 8:27 PM CDT
Astronomical Twilight 5:00 AM CDT 9:00 PM CDT
Moon 3:08 PM CDT 12:29 AM CDT
Length of Visible Light 13h 49m
Length of Day
12h 55m
Tomorrow will be 2m 24s shorter.
First Quarter, 59% of the Moon is Illuminated
Today
First Quarter
Sep 8
Full
Sep 15
Last Quarter
Sep 24
New
Oct 1
First Quarter

Today's Extremes

State Highs State Lows

Community

WunderPhotos

Upload Photos

1,749,891 photos uploaded!

Nearby

Snow Depth

Station Depth Elevation
No new snow has been reported.

Earthquake Activity

City Distance Mag. Time & Date
No recent earthquake activity has been reported nearby.
Minimum magnitude displayed is 2.5.

Coastal Water Temperatures

Place Temperature
No Stations Reporting

Nearby Weather Stations